Time;durP1;ratioP1;P1;durP2;ratioP2;P2;SDS_P1;SDS_P2;PMS_P1;PMS_P2;Temp;Humidity;BMP_temperature;BMP_pressure;BME280_temperature;BME280_humidity;BME280_pressure;Samples;Min_cycle;Max_cycle;Signal;HPM_P1;HPM_P2
2022/01/03 22:00:24;;;;;;;;;;;;;;;;;;;;;
2022/01/03 22:02:56;;;;;;;1.63;1.10;;;12.50;99.90;;;;;;5133618;27;39770;-82
2022/01/03 22:05:36;;;;;;;3.50;2.28;;;12.60;99.90;;;;;;5135848;27;20043;-83
2022/01/03 22:08:07;;;;;;;1.60;1.23;;;12.50;99.90;;;;;;5126159;27;20713;-83
2022/01/03 22:10:53;;;;;;;4.65;2.00;;;12.30;99.90;;;;;;5130743;27;20046;-81
2022/01/03 22:13:21;;;;;;;6.32;2.22;;;12.50;99.90;;;;;;5137862;27;20040;-82
2022/01/03 22:15:55;;;;;;;3.53;1.42;;;12.50;99.90;;;;;;5129096;27;20043;-82
2022/01/03 22:18:24;;;;;;;1.77;1.40;;;12.60;99.90;;;;;;5134519;27;20054;-82
2022/01/03 22:21:01;;;;;;;2.92;1.80;;;12.60;99.90;;;;;;5137166;27;20414;-81
2022/01/03 22:23:30;;;;;;;2.20;1.38;;;12.60;99.90;;;;;;5128061;27;20047;-81
2022/01/03 22:26:08;;;;;;;4.43;1.45;;;12.60;99.90;;;;;;5137751;27;20039;-81
2022/01/03 22:28:38;;;;;;;2.50;1.52;;;12.60;99.90;;;;;;5132431;27;20917;-82
2022/01/03 22:31:24;;;;;;;3.75;1.50;;;12.60;99.90;;;;;;5138046;27;20126;-82
2022/01/03 22:34:05;;;;;;;3.17;1.38;;;13.20;99.90;;;;;;5125717;27;20096;-81
2022/01/03 22:36:37;;;;;;;2.90;1.30;;;12.60;99.90;;;;;;5131189;27;20036;-81
2022/01/03 22:39:11;;;;;;;3.00;1.85;;;12.60;99.90;;;;;;5136562;27;20551;-81
2022/01/03 22:41:45;;;;;;;2.13;1.33;;;12.60;99.90;;;;;;5126793;27;20078;-81
2022/01/03 22:44:14;;;;;;;2.00;1.30;;;12.60;99.90;;;;;;5127134;27;20531;-81
2022/01/03 22:46:40;;;;;;;3.22;1.60;;;13.00;99.90;;;;;;5130403;27;20510;-80
2022/01/03 22:49:12;;;;;;;1.38;1.27;;;12.40;99.90;;;;;;5130069;27;20555;-81
2022/01/03 22:51:46;;;;;;;1.73;1.10;;;12.50;99.90;;;;;;5129165;27;20040;-81
2022/01/03 22:54:19;;;;;;;1.52;1.00;;;12.50;99.90;;;;;;5129363;27;20146;-81
2022/01/03 22:56:47;;;;;;;4.20;2.15;;;12.50;99.90;;;;;;5135592;27;20146;-80
2022/01/03 22:59:34;;;;;;;3.05;1.25;;;12.50;99.90;;;;;;5125465;27;20051;-80
2022/01/03 23:02:00;;;;;;;1.88;1.10;;;12.60;99.90;;;;;;5127862;27;20931;-80
2022/01/03 23:04:27;;;;;;;2.25;1.50;;;11.80;99.90;;;;;;5133500;27;20032;-80
2022/01/03 23:07:02;;;;;;;3.20;1.13;;;12.50;99.90;;;;;;5127081;27;20059;-80
2022/01/03 23:09:29;;;;;;;2.05;1.13;;;12.60;99.90;;;;;;5128048;27;20051;-80
2022/01/03 23:12:00;;;;;;;2.65;1.30;;;12.50;99.90;;;;;;5118025;27;20104;-80
2022/01/03 23:14:26;;;;;;;2.03;1.23;;;12.50;99.90;;;;;;5110839;27;20036;-80
2022/01/03 23:16:55;;;;;;;1.40;1.00;;;12.50;99.90;;;;;;5116666;27;20264;-81
2022/01/03 23:19:23;;;;;;;2.55;0.93;;;12.50;99.90;;;;;;5115835;27;20132;-82
2022/01/03 23:22:07;;;;;;;1.65;0.90;;;12.50;99.90;;;;;;5125805;27;20120;-80
2022/01/03 23:24:47;;;;;;;2.88;0.95;;;12.40;99.90;;;;;;5119171;27;20572;-80
2022/01/03 23:27:13;;;;;;;1.20;0.50;;;12.50;99.90;;;;;;5113371;27;20043;-80
2022/01/03 23:29:42;;;;;;;1.33;0.90;;;12.50;99.90;;;;;;5108773;27;20039;-80
2022/01/03 23:32:09;;;;;;;0.80;0.77;;;12.50;99.90;;;;;;5117313;27;20048;-81
2022/01/03 23:34:38;;;;;;;1.02;0.80;;;13.20;99.90;;;;;;5118681;27;20039;-80
2022/01/03 23:37:06;;;;;;;1.15;1.00;;;12.50;99.90;;;;;;5119072;27;20673;-80
2022/01/03 23:39:38;;;;;;;0.80;0.75;;;12.50;99.90;;;;;;5114366;27;20043;-81
2022/01/03 23:42:08;;;;;;;0.77;0.60;;;12.50;99.90;;;;;;5116973;27;20101;-80
2022/01/03 23:44:34;;;;;;;1.48;0.75;;;12.40;99.90;;;;;;5113439;27;20588;-80
2022/01/03 23:47:02;;;;;;;0.60;0.60;;;12.40;99.90;;;;;;5119094;27;20043;-80
2022/01/03 23:49:45;;;;;;;1.30;0.88;;;12.40;99.90;;;;;;5113449;27;20097;-80
2022/01/03 23:52:19;;;;;;;0.50;0.50;;;12.40;99.90;;;;;;5116116;27;20035;-81
2022/01/03 23:54:52;;;;;;;0.80;0.55;;;12.40;99.90;;;;;;5113792;27;20067;-80
2022/01/03 23:57:18;;;;;;;1.65;0.60;;;12.40;99.90;;;;;;5118231;27;20119;-81
2022/01/03 23:59:53;;;;;;;0.52;0.47;;;12.40;99.90;;;;;;5129305;27;20139;-81
